Time;durP1;ratioP1;P1;durP2;ratioP2;P2;SDS_P1;SDS_P2;PMS_P1;PMS_P2;Temp;Humidity;BMP_temperature;BMP_pressure;BME280_temperature;BME280_humidity;BME280_pressure;Samples;Min_cycle;Max_cycle;Signal;HPM_P1;HPM_P2
2022/06/20 00:02:02;;;;;;;;;;;;;;;19.50;52.46;100289.66;5006456;28;6804;-77
2022/06/20 00:04:28;;;;;;;;;;;;;;;19.53;52.29;100287.09;4990339;28;7245;-77
2022/06/20 00:06:54;;;;;;;;;;;;;;;19.57;51.68;100277.63;5011759;28;6938;-77
2022/06/20 00:09:19;;;;;;;;;;;;;;;19.57;51.82;100267.22;5007417;28;8458;-77
2022/06/20 00:11:49;;;;;;;;;;;;;;;19.59;51.48;100269.81;5018369;28;6788;-77
2022/06/20 00:14:20;;;;;;;;;;;;;;;19.62;51.60;100267.25;5005596;28;6903;-77
2022/06/20 00:16:47;;;;;;;;;;;;;;;19.64;51.31;100263.78;4995538;28;7996;-77
2022/06/20 00:19:14;;;;;;;;;;;;;;;19.65;51.17;100249.97;5012023;28;7333;-77
2022/06/20 00:21:40;;;;;;;;;;;;;;;19.69;51.31;100245.63;4996906;28;6800;-77
2022/06/20 00:24:07;;;;;;;;;;;;;;;19.71;50.78;100244.78;5010000;28;7336;-77
2022/06/20 00:26:35;;;;;;;;;;;;;;;19.71;51.20;100234.38;5013423;28;7306;-77
2022/06/20 00:29:07;;;;;;;;;;;;;;;19.71;51.18;100242.19;5002479;28;7370;-78
2022/06/20 00:31:35;;;;;;;;;;;;;;;19.72;51.00;100248.28;5021139;28;8001;-77
2022/06/20 00:34:01;;;;;;;;;;;;;;;19.71;51.18;100254.34;5012965;28;6804;-77
2022/06/20 00:36:27;;;;;;;;;;;;;;;19.73;50.72;100267.31;5001120;28;7266;-77
2022/06/20 00:38:56;;;;;;;;;;;;;;;19.74;51.34;100302.88;4997851;28;6966;-77
2022/06/20 00:41:31;;;;;;;;;;;;;;;19.77;51.06;100357.50;5016983;28;8575;-77
2022/06/20 00:43:57;;;;;;;;;;;;;;;19.78;51.23;100393.06;5009550;28;7420;-77
2022/06/20 00:46:42;;;;;;;;;;;;;;;19.80;51.00;100406.94;4999371;28;6812;-77
2022/06/20 00:49:25;;;;;;;;;;;;;;;19.80;51.28;100426.03;4999603;28;7691;-77
2022/06/20 00:52:10;;;;;;;;;;;;;;;19.76;51.01;100445.03;5014478;28;7903;-77
2022/06/20 00:55:01;;;;;;;;;;;;;;;19.69;51.00;100444.09;5014914;28;8355;-77
2022/06/20 00:57:45;;;;;;;;;;;;;;;19.57;51.82;100470.81;5016637;28;7218;-77
2022/06/20 01:00:21;;;;;;;;;;;;;;;19.45;52.05;100488.00;4984293;28;8532;-77
2022/06/20 01:02:57;;;;;;;;;;;;;;;19.34;52.88;100486.13;5015259;28;6820;-77
2022/06/20 01:05:57;;;;;;;;;;;;;;;19.18;53.20;100459.06;5012753;28;6954;-77
2022/06/20 01:08:30;;;;;;;;;;;;;;;19.06;53.57;100445.94;5002732;28;6900;-77
2022/06/20 01:11:13;;;;;;;;;;;;;;;18.97;53.85;100434.53;5012733;28;7022;-77
2022/06/20 01:13:39;;;;;;;;;;;;;;;18.93;54.34;100434.44;5006840;28;8402;-77
2022/06/20 01:16:14;;;;;;;;;;;;;;;18.91;54.25;100423.19;5011812;28;6837;-77
2022/06/20 01:18:45;;;;;;;;;;;;;;;18.88;54.97;100416.22;5021644;28;6891;-78
2022/06/20 01:21:20;;;;;;;;;;;;;;;18.87;55.09;100402.34;4998434;28;7014;-79
2022/06/20 01:23:51;;;;;;;;;;;;;;;18.86;54.87;100389.34;5011966;28;7397;-78
2022/06/20 01:26:31;;;;;;;;;;;;;;;18.84;55.72;100378.09;5018153;28;6977;-78
2022/06/20 01:29:03;;;;;;;;;;;;;;;18.81;55.84;100368.53;4989393;28;8365;-80
2022/06/20 01:31:42;;;;;;;;;;;;;;;18.79;55.63;100345.97;5023506;28;7576;-79
2022/06/20 01:34:08;;;;;;;;;;;;;;;18.74;55.65;100340.72;5004764;28;6824;-79
2022/06/20 01:39:24;;;;;;;;;;;;;;;18.64;55.86;100299.94;5006025;28;8624;-79
2022/06/20 01:44:42;;;;;;;;;;;;;;;18.49;55.94;100233.13;5017799;28;6823;-79
2022/06/20 01:47:07;;;;;;;;;;;;;;;18.39;56.33;100209.66;5013290;28;6811;-79
2022/06/20 01:49:37;;;;;;;;;;;;;;;18.32;56.75;100181.88;5003491;28;8491;-79
2022/06/20 01:52:12;;;;;;;;;;;;;;;18.25;56.87;100149.81;4998057;28;7078;-78
2022/06/20 01:54:48;;;;;;;;;;;;;;;18.17;56.65;100130.69;5015879;28;7178;-78
2022/06/20 01:57:17;;;;;;;;;;;;;;;18.08;56.93;100125.38;4998388;28;6808;-78
2022/06/20 01:59:55;;;;;;;;;;;;;;;17.99;57.42;100116.59;5010785;28;6823;-78
2022/06/20 02:02:20;;;;;;;;;;;;;;;17.89;57.24;100089.69;5021511;28;7784;-78
2022/06/20 02:04:47;;;;;;;;;;;;;;;17.81;57.45;100074.88;5013991;28;7174;-77
2022/06/20 02:07:13;;;;;;;;;;;;;;;17.72;57.75;100058.38;5019356;28;8448;-78
2022/06/20 02:09:41;;;;;;;;;;;;;;;17.65;58.07;100045.31;5000176;28;7872;-78
2022/06/20 02:12:10;;;;;;;;;;;;;;;17.59;58.14;100036.63;5007903;28;7353;-79
2022/06/20 02:14:46;;;;;;;;;;;;;;;17.55;58.02;100047.78;5017586;28;6981;-78
2022/06/20 02:17:24;;;;;;;;;;;;;;;17.54;58.31;100058.13;4985965;28;7110;-79
2022/06/20 02:19:55;;;;;;;;;;;;;;;17.50;58.62;100054.63;5008215;28;6882;-78
2022/06/20 02:22:25;;;;;;;;;;;;;;;17.47;58.90;100054.56;4994999;28;6988;-79
2022/06/20 02:24:59;;;;;;;;;;;;;;;17.47;58.97;100067.50;4982710;28;7187;-79
2022/06/20 02:27:45;;;;;;;;;;;;;;;17.47;59.32;100101.19;4996112;28;7201;-79
2022/06/20 02:30:12;;;;;;;;;;;;;;;17.47;59.34;100106.38;5000303;28;8904;-80
2022/06/20 02:32:55;;;;;;;;;;;;;;;17.47;59.55;100115.03;5004448;28;8518;-80
2022/06/20 02:35:22;;;;;;;;;;;;;;;17.50;59.68;100124.56;4984315;28;8422;-80
2022/06/20 02:37:49;;;;;;;;;;;;;;;17.51;59.46;100139.28;5015234;28;6808;-80
2022/06/20 02:40:22;;;;;;;;;;;;;;;17.53;59.61;100149.63;5008348;28;6804;-80
2022/06/20 02:43:00;;;;;;;;;;;;;;;17.56;60.03;100134.16;4995650;28;6808;-80
2022/06/20 02:45:28;;;;;;;;;;;;;;;17.56;60.05;100123.78;5019529;28;7060;-80
2022/06/20 02:48:04;;;;;;;;;;;;;;;17.60;59.71;100144.59;5014762;28;7034;-79
2022/06/20 02:50:38;;;;;;;;;;;;;;;17.62;60.09;100152.38;5013579;28;6819;-79
2022/06/20 02:53:37;;;;;;;;;;;;;;;17.67;59.28;100139.47;4995334;28;8531;-80
2022/06/20 02:56:07;;;;;;;;;;;;;;;17.67;59.37;100137.78;5013129;28;7212;-79
2022/06/20 02:58:39;;;;;;;;;;;;;;;17.66;59.09;100135.16;5014330;28;7016;-80
2022/06/20 03:01:42;;;;;;;;;;;;;;;17.65;59.46;100113.56;5015327;28;6894;-80
2022/06/20 03:04:10;;;;;;;;;;;;;;;17.63;59.33;100100.56;5008729;28;7114;-80
2022/06/20 03:06:49;;;;;;;;;;;;;;;17.62;59.04;100096.25;5017528;28;6900;-80
2022/06/20 03:09:23;;;;;;;;;;;;;;;17.62;59.12;100092.78;4999303;28;7117;-80
2022/06/20 03:11:50;;;;;;;;;;;;;;;17.61;58.74;100089.31;5013222;28;7498;-80
2022/06/20 03:14:23;;;;;;;;;;;;;;;17.58;59.35;100073.75;5002344;28;8447;-79
2022/06/20 03:16:49;;;;;;;;;;;;;;;17.54;59.08;100065.91;5018725;28;7055;-80
2022/06/20 03:19:22;;;;;;;;;;;;;;;17.52;58.82;100067.56;4997744;28;8383;-80
2022/06/20 03:21:48;;;;;;;;;;;;;;;17.47;58.99;100093.41;5005522;28;7829;-80
2022/06/20 03:24:19;;;;;;;;;;;;;;;17.43;58.88;100110.66;5004977;28;7210;-81
2022/06/20 03:26:45;;;;;;;;;;;;;;;17.41;59.28;100138.25;5022022;28;7219;-80
2022/06/20 03:29:17;;;;;;;;;;;;;;;17.40;59.37;100162.41;5000353;28;8495;-80
2022/06/20 03:31:43;;;;;;;;;;;;;;;17.44;59.12;100189.25;4994846;28;7755;-80
2022/06/20 03:34:11;;;;;;;;;;;;;;;17.44;58.75;100209.97;5008986;28;6871;-80
2022/06/20 03:36:38;;;;;;;;;;;;;;;17.47;58.86;100241.97;5012307;28;7678;-80
2022/06/20 03:39:05;;;;;;;;;;;;;;;17.52;59.03;100259.31;5004520;28;7239;-81
2022/06/20 03:41:31;;;;;;;;;;;;;;;17.54;58.89;100274.03;4984220;28;6980;-80
2022/06/20 03:44:20;;;;;;;;;;;;;;;17.60;58.78;100294.88;4992249;28;8408;-80
2022/06/20 03:47:09;;;;;;;;;;;;;;;17.64;58.71;100311.38;4994298;28;7819;-80
2022/06/20 03:50:01;;;;;;;;;;;;;;;17.68;59.06;100328.69;5013370;28;7201;-80
2022/06/20 03:52:41;;;;;;;;;;;;;;;17.73;58.75;100346.94;4966746;28;7127;-80
2022/06/20 03:55:19;;;;;;;;;;;;;;;17.77;59.31;100359.13;5013903;28;7579;-80
2022/06/20 03:57:54;;;;;;;;;;;;;;;17.83;59.13;100379.94;5000796;28;6986;-80
2022/06/20 04:00:56;;;;;;;;;;;;;;;17.89;59.15;100389.53;5010780;28;6823;-80
2022/06/20 04:03:42;;;;;;;;;;;;;;;17.92;59.06;100400.00;4974604;28;7121;-79
2022/06/20 04:06:14;;;;;;;;;;;;;;;17.92;58.76;100400.00;5009525;28;6980;-79
2022/06/20 04:11:50;;;;;;;;;;;;;;;17.96;58.75;100393.09;5015389;28;7074;-81
2022/06/20 04:14:33;;;;;;;;;;;;;;;17.99;58.82;100393.19;5015555;28;7264;-81
2022/06/20 04:20:52;;;;;;;;;;;;;;;18.04;58.69;100395.03;5004188;28;8787;-81
2022/06/20 04:23:57;;;;;;;;;;;;;;;18.04;58.37;100394.16;5001888;28;6993;-81
2022/06/20 04:26:37;;;;;;;;;;;;;;;18.06;58.76;100382.09;4922815;28;8400;-82
2022/06/20 04:29:27;;;;;;;;;;;;;;;18.08;59.26;100370.03;5016905;28;8150;-81
2022/06/20 04:32:09;;;;;;;;;;;;;;;18.09;59.24;100369.19;5016868;28;6816;-81
2022/06/20 04:34:44;;;;;;;;;;;;;;;18.11;59.45;100362.28;5025267;28;8561;-80
2022/06/20 04:37:38;;;;;;;;;;;;;;;18.12;58.73;100361.44;5007602;28;7251;-81
2022/06/20 04:40:28;;;;;;;;;;;;;;;18.11;58.68;100354.50;5006428;28;6969;-81
2022/06/20 04:43:07;;;;;;;;;;;;;;;18.09;59.00;100337.19;4977737;28;1063473;-81
2022/06/20 04:45:49;;;;;;;;;;;;;;;18.08;58.79;100331.13;5018462;28;6982;-81
2022/06/20 04:48:19;;;;;;;;;;;;;;;18.07;58.80;100315.53;5005516;28;7057;-81
2022/06/20 04:50:54;;;;;;;;;;;;;;;18.06;59.01;100314.69;5013141;28;8554;-81
2022/06/20 04:53:32;;;;;;;;;;;;;;;18.04;59.09;100317.25;4992965;28;6984;-81
2022/06/20 04:56:03;;;;;;;;;;;;;;;18.03;59.08;100305.13;5006729;28;7172;-81
2022/06/20 04:58:39;;;;;;;;;;;;;;;18.04;58.96;100311.16;5019979;28;7043;-81
2022/06/20 05:01:08;;;;;;;;;;;;;;;18.04;59.43;100312.06;5019756;28;8558;-81
2022/06/20 05:03:42;;;;;;;;;;;;;;;18.03;58.71;100312.00;5017433;28;6891;-81
2022/06/20 05:06:28;;;;;;;;;;;;;;;18.02;59.21;100312.84;5020168;28;6993;-81
2022/06/20 05:09:39;;;;;;;;;;;;;;;18.01;58.88;100311.09;4988368;28;8577;-81
2022/06/20 05:12:37;;;;;;;;;;;;;;;18.00;59.49;100315.41;5005717;28;6985;-81
2022/06/20 05:15:41;;;;;;;;;;;;;;;17.98;59.39;100321.44;5021555;28;9592;-81
2022/06/20 05:18:42;;;;;;;;;;;;;;;17.99;59.25;100318.00;5017328;28;7068;-80
2022/06/20 05:21:28;;;;;;;;;;;;;;;18.00;59.02;100318.00;5021244;28;6800;-80
2022/06/20 05:24:06;;;;;;;;;;;;;;;17.99;59.42;100323.19;5014819;28;7908;-81
2022/06/20 05:26:40;;;;;;;;;;;;;;;17.99;58.98;100328.34;5009642;28;6836;-80
2022/06/20 05:29:19;;;;;;;;;;;;;;;17.98;59.00;100339.59;5014832;28;7133;-81
2022/06/20 05:31:53;;;;;;;;;;;;;;;17.98;59.04;100344.78;5011180;28;7060;-81
2022/06/20 05:34:49;;;;;;;;;;;;;;;17.97;59.05;100337.84;4990173;28;8555;-81
2022/06/20 05:37:48;;;;;;;;;;;;;;;17.95;58.97;100337.81;4988471;28;6824;-81
2022/06/20 05:40:31;;;;;;;;;;;;;;;17.93;59.29;100336.91;5008560;28;6988;-81
2022/06/20 05:42:57;;;;;;;;;;;;;;;17.93;59.38;100339.50;5014558;28;7861;-80
2022/06/20 05:45:26;;;;;;;;;;;;;;;17.95;59.10;100332.63;5011206;28;7340;-81
2022/06/20 05:47:56;;;;;;;;;;;;;;;17.97;59.03;100325.72;5004612;28;7729;-81
2022/06/20 05:50:41;;;;;;;;;;;;;;;17.99;58.68;100321.44;5030997;28;8096;-80
2022/06/20 05:53:25;;;;;;;;;;;;;;;17.98;59.24;100332.66;5010353;28;8337;-81
2022/06/20 05:55:56;;;;;;;;;;;;;;;18.00;59.10;100356.03;5000026;28;7162;-81
2022/06/20 05:58:31;;;;;;;;;;;;;;;18.03;59.20;100361.25;4995417;28;8783;-80
2022/06/20 06:01:07;;;;;;;;;;;;;;;18.06;58.69;100360.47;4998494;28;6980;-79
2022/06/20 06:04:05;;;;;;;;;;;;;;;18.06;58.76;100361.38;5010597;28;7215;-81
2022/06/20 06:06:43;;;;;;;;;;;;;;;18.07;58.96;100354.44;4997156;28;7789;-81
2022/06/20 06:09:25;;;;;;;;;;;;;;;18.07;58.64;100350.13;5023047;28;10287;-81
2022/06/20 06:11:59;;;;;;;;;;;;;;;18.11;58.88;100358.84;4993239;28;8553;-81
2022/06/20 06:14:41;;;;;;;;;;;;;;;18.12;58.66;100353.66;5001514;28;6820;-81
2022/06/20 06:17:26;;;;;;;;;;;;;;;18.13;58.35;100367.53;4997603;28;6819;-80
2022/06/20 06:20:02;;;;;;;;;;;;;;;18.12;58.54;100361.44;5012154;28;6828;-81
2022/06/20 06:22:45;;;;;;;;;;;;;;;18.12;58.41;100368.38;5011173;28;7415;-81
2022/06/20 06:25:34;;;;;;;;;;;;;;;18.12;58.61;100378.75;5013380;28;6819;-81
2022/06/20 06:28:19;;;;;;;;;;;;;;;18.12;58.99;100370.97;5026210;28;6840;-80
2022/06/20 06:30:54;;;;;;;;;;;;;;;18.14;58.84;100371.84;5016007;28;6891;-80
2022/06/20 06:33:38;;;;;;;;;;;;;;;18.17;58.69;100379.69;5002671;28;7014;-80
2022/06/20 06:36:15;;;;;;;;;;;;;;;18.20;58.51;100389.22;4997414;28;6921;-80
2022/06/20 06:39:04;;;;;;;;;;;;;;;18.23;58.26;100399.66;5016887;28;7195;-80
2022/06/20 06:41:43;;;;;;;;;;;;;;;18.25;58.74;100406.63;4999864;28;7298;-81
2022/06/20 06:44:25;;;;;;;;;;;;;;;18.32;58.38;100407.59;5016717;28;7294;-80
2022/06/20 06:46:54;;;;;;;;;;;;;;;18.36;58.57;100409.41;5009654;28;7011;-80
2022/06/20 06:49:39;;;;;;;;;;;;;;;18.45;58.06;100424.22;5014986;28;6890;-80
2022/06/20 06:52:36;;;;;;;;;;;;;;;18.48;58.25;100426.00;5013880;28;7928;-81
2022/06/20 06:55:33;;;;;;;;;;;;;;;18.55;58.75;100425.25;5010790;28;8408;-80
2022/06/20 06:58:41;;;;;;;;;;;;;;;18.62;58.21;100426.22;5008434;28;7786;-80
2022/06/20 07:01:16;;;;;;;;;;;;;;;18.68;58.55;100436.69;4971870;28;8413;-80
2022/06/20 07:03:58;;;;;;;;;;;;;;;18.73;57.69;100437.63;4998823;28;8396;-80
2022/06/20 07:06:40;;;;;;;;;;;;;;;18.77;57.91;100433.38;5017327;28;6823;-80
2022/06/20 07:09:15;;;;;;;;;;;;;;;18.81;57.93;100432.53;5001152;28;8408;-80
2022/06/20 07:12:06;;;;;;;;;;;;;;;18.83;58.04;100429.13;5016688;28;6993;-80
2022/06/20 07:14:42;;;;;;;;;;;;;;;18.83;57.74;100430.84;5015948;28;6986;-80
2022/06/20 07:17:24;;;;;;;;;;;;;;;18.83;57.85;100438.63;4998153;28;8110;-80
2022/06/20 07:19:51;;;;;;;;;;;;;;;18.85;57.57;100439.53;4992286;28;7312;-80
2022/06/20 07:22:22;;;;;;;;;;;;;;;18.87;57.64;100437.84;4975618;28;8575;-80
2022/06/20 07:24:51;;;;;;;;;;;;;;;18.89;57.19;100438.72;5016913;28;6986;-80
2022/06/20 07:27:42;;;;;;;;;;;;;;;18.94;56.83;100444.00;5009487;28;8395;-80
2022/06/20 07:30:28;;;;;;;;;;;;;;;18.99;57.24;100444.94;5000750;28;7916;-80
2022/06/20 07:33:01;;;;;;;;;;;;;;;19.06;57.42;100443.31;5014033;28;7313;-80
2022/06/20 07:35:44;;;;;;;;;;;;;;;19.18;57.52;100460.81;5024837;28;6820;-80
2022/06/20 07:38:28;;;;;;;;;;;;;;;19.31;57.13;100464.41;5000419;28;8626;-80
2022/06/20 07:41:04;;;;;;;;;;;;;;;19.44;56.63;100458.53;5017493;28;7212;-80
2022/06/20 07:43:53;;;;;;;;;;;;;;;19.59;56.90;100467.38;5022742;28;7009;-79
2022/06/20 07:46:43;;;;;;;;;;;;;;;19.80;56.64;100475.44;5013986;28;7045;-79
2022/06/20 07:49:46;;;;;;;;;;;;;;;20.09;56.28;100467.09;5007867;28;7208;-80
2022/06/20 07:52:25;;;;;;;;;;;;;;;20.36;55.73;100462.13;5009847;28;7195;-79
2022/06/20 07:54:59;;;;;;;;;;;;;;;20.59;55.35;100471.84;5018036;28;6978;-79
2022/06/20 07:57:46;;;;;;;;;;;;;;;20.85;54.89;100489.44;5015038;28;7249;-79
2022/06/20 08:00:22;;;;;;;;;;;;;;;21.01;54.20;100493.91;5015833;28;7210;-79
2022/06/20 08:03:08;;;;;;;;;;;;;;;21.19;53.82;100495.72;4998678;28;7245;-79
2022/06/20 08:06:00;;;;;;;;;;;;;;;21.42;53.66;100494.97;5014901;28;7158;-79
2022/06/20 08:08:36;;;;;;;;;;;;;;;21.64;52.85;100518.53;4998502;28;8833;-79
2022/06/20 08:14:20;;;;;;;;;;;;;;;21.75;51.42;100521.22;5019732;28;7017;-79
2022/06/20 08:16:53;;;;;;;;;;;;;;;21.80;51.76;100522.13;5017564;28;7058;-78
2022/06/20 08:19:19;;;;;;;;;;;;;;;22.02;51.45;100525.66;4997293;28;6954;-79
2022/06/20 08:21:56;;;;;;;;;;;;;;;22.13;50.61;100517.84;5011089;28;8033;-78
2022/06/20 08:24:41;;;;;;;;;;;;;;;22.19;50.34;100516.97;5016067;28;7377;-77
2022/06/20 08:27:12;;;;;;;;;;;;;;;22.38;50.94;100515.28;5011663;28;6962;-79
2022/06/20 08:29:51;;;;;;;;;;;;;;;22.73;50.09;100503.97;5013639;28;6972;-81
2022/06/20 08:33:10;;;;;;;;;;;;;;;23.30;49.72;100507.41;5003891;28;6989;-79
2022/06/20 08:35:51;;;;;;;;;;;;;;;24.05;49.38;100496.63;4996136;28;7254;-79
2022/06/20 08:38:32;;;;;;;;;;;;;;;24.54;48.56;100495.38;5017802;28;7062;-79
2022/06/20 08:41:41;;;;;;;;;;;;;;;24.84;47.01;100503.03;5012366;28;7506;-79
2022/06/20 08:44:53;;;;;;;;;;;;;;;25.13;46.64;100512.34;5017115;28;7104;-79
2022/06/20 08:48:01;;;;;;;;;;;;;;;25.55;45.94;100520.63;5017090;28;6823;-79
2022/06/20 08:51:22;;;;;;;;;;;;;;;25.65;45.14;100524.88;5018054;28;7942;-80
2022/06/20 08:54:48;;;;;;;;;;;;;;;25.45;44.82;100538.22;5026755;28;7304;-79
2022/06/20 08:57:42;;;;;;;;;;;;;;;25.13;43.87;100538.56;5014628;28;7055;-79
2022/06/20 09:00:18;;;;;;;;;;;;;;;24.72;44.03;100543.28;5012000;28;6957;-78
2022/06/20 09:03:17;;;;;;;;;;;;;;;24.34;44.13;100542.69;5014760;28;8511;-79
2022/06/20 09:06:11;;;;;;;;;;;;;;;24.07;43.96;100548.06;5007479;28;7878;-78
2022/06/20 09:09:08;;;;;;;;;;;;;;;23.74;44.46;100554.31;4968329;28;8410;-79
2022/06/20 09:12:22;;;;;;;;;;;;;;;23.50;45.38;100561.38;4995371;28;8498;-79
2022/06/20 09:15:34;;;;;;;;;;;;;;;23.41;45.59;100564.88;5000878;28;7042;-80
2022/06/20 09:18:23;;;;;;;;;;;;;;;23.71;45.86;100561.31;5013689;28;6831;-78
2022/06/20 09:21:09;;;;;;;;;;;;;;;24.17;45.40;100554.16;5010375;28;6807;-79
2022/06/20 09:24:10;;;;;;;;;;;;;;;24.48;45.01;100548.69;5021363;28;6969;-78
2022/06/20 09:26:47;;;;;;;;;;;;;;;24.67;44.32;100548.56;5013831;28;7663;-78
2022/06/20 09:29:40;;;;;;;;;;;;;;;24.81;43.79;100543.22;4996766;28;6952;-78
2022/06/20 09:32:36;;;;;;;;;;;;;;;24.89;43.31;100546.66;5014563;28;7146;-79
2022/06/20 09:35:20;;;;;;;;;;;;;;;24.86;43.23;100543.19;5020458;28;8463;-79
2022/06/20 09:38:14;;;;;;;;;;;;;;;24.75;42.16;100538.88;5008161;28;8434;-79
2022/06/20 09:41:12;;;;;;;;;;;;;;;24.67;41.71;100554.69;5008031;28;6969;-79
2022/06/20 09:43:54;;;;;;;;;;;;;;;24.59;42.01;100551.25;4998079;28;7188;-79
2022/06/20 09:46:56;;;;;;;;;;;;;;;24.59;41.81;100553.88;5029801;28;6812;-79
2022/06/20 09:49:50;;;;;;;;;;;;;;;24.62;41.72;100556.44;5011877;28;7202;-79
2022/06/20 09:52:47;;;;;;;;;;;;;;;24.78;40.67;100554.59;5018169;28;6827;-79
2022/06/20 09:55:39;;;;;;;;;;;;;;;25.03;40.33;100556.13;5008865;28;6824;-79
2022/06/20 09:58:29;;;;;;;;;;;;;;;25.84;40.42;100561.38;5013628;28;7262;-79
2022/06/20 10:01:17;;;;;;;;;;;;;;;26.73;38.64;100557.50;5013715;28;6981;-79
2022/06/20 10:04:23;;;;;;;;;;;;;;;26.98;37.34;100552.69;5005124;28;8838;-79
2022/06/20 10:07:12;;;;;;;;;;;;;;;26.87;36.96;100558.09;4983155;28;7416;-79
2022/06/20 10:10:19;;;;;;;;;;;;;;;26.59;36.55;100555.94;5015893;28;7130;-79
2022/06/20 10:13:37;;;;;;;;;;;;;;;26.18;36.85;100566.19;4964107;28;7220;-79
2022/06/20 10:16:34;;;;;;;;;;;;;;;25.77;37.26;100565.84;5018162;28;6904;-79
2022/06/20 10:19:35;;;;;;;;;;;;;;;25.58;38.19;100570.44;5013150;28;6986;-78
2022/06/20 10:22:21;;;;;;;;;;;;;;;25.43;38.65;100570.59;5012628;28;7464;-79
2022/06/20 10:25:20;;;;;;;;;;;;;;;25.31;38.39;100582.06;5014509;28;6903;-79
2022/06/20 10:28:25;;;;;;;;;;;;;;;25.27;38.46;100573.38;5000145;28;6983;-79
2022/06/20 10:31:25;;;;;;;;;;;;;;;25.31;38.46;100567.22;5025343;28;6887;-79
2022/06/20 10:34:21;;;;;;;;;;;;;;;25.73;38.88;100576.41;5015580;28;6970;-79
2022/06/20 10:37:25;;;;;;;;;;;;;;;26.43;38.91;100564.97;5013403;28;7187;-79
2022/06/20 10:40:03;;;;;;;;;;;;;;;27.33;37.68;100568.72;4999068;28;6996;-79
2022/06/20 10:43:08;;;;;;;;;;;;;;;28.02;36.48;100570.88;5016860;28;7885;-78
2022/06/20 10:45:49;;;;;;;;;;;;;;;28.18;36.00;100568.75;5017098;28;8368;-79
2022/06/20 10:48:52;;;;;;;;;;;;;;;28.07;35.22;100568.97;4999215;28;7164;-79
2022/06/20 10:51:33;;;;;;;;;;;;;;;28.12;35.57;100575.03;5012459;28;7175;-79
2022/06/20 10:54:14;;;;;;;;;;;;;;;28.65;35.00;100568.53;5015041;28;6997;-79
2022/06/20 10:57:04;;;;;;;;;;;;;;;29.18;34.08;100571.63;5018314;28;7199;-79
2022/06/20 10:59:46;;;;;;;;;;;;;;;29.70;32.98;100571.06;5016342;28;7158;-79
2022/06/20 11:03:13;;;;;;;;;;;;;;;29.49;31.57;100574.31;5023401;28;7207;-79
2022/06/20 11:06:34;;;;;;;;;;;;;;;28.81;31.92;100573.44;5017674;28;7002;-79
2022/06/20 11:09:11;;;;;;;;;;;;;;;28.81;32.72;100571.63;5017173;28;6820;-79
2022/06/20 11:12:05;;;;;;;;;;;;;;;28.99;32.35;100566.84;5018973;28;6891;-79
2022/06/20 11:15:09;;;;;;;;;;;;;;;29.72;32.71;100575.41;5015094;28;6863;-79
2022/06/20 11:17:59;;;;;;;;;;;;;;;30.19;31.92;100569.63;5012770;28;7031;-79
2022/06/20 11:20:32;;;;;;;;;;;;;;;30.76;31.10;100577.53;5019290;28;7157;-79
2022/06/20 11:23:44;;;;;;;;;;;;;;;30.70;30.37;100580.38;5027352;28;6950;-79
2022/06/20 11:26:39;;;;;;;;;;;;;;;30.14;29.93;100583.91;4971368;28;7200;-79
2022/06/20 11:29:28;;;;;;;;;;;;;;;29.49;30.09;100584.88;5004002;28;6827;-79
2022/06/20 11:32:58;;;;;;;;;;;;;;;28.90;30.71;100581.13;5027934;28;7227;-79
2022/06/20 11:35:42;;;;;;;;;;;;;;;28.55;31.91;100582.84;4982176;28;8582;-79
2022/06/20 11:38:47;;;;;;;;;;;;;;;28.91;32.05;100580.22;5019607;28;8467;-79
2022/06/20 11:41:21;;;;;;;;;;;;;;;29.83;31.49;100580.38;5011164;28;8112;-79
2022/06/20 11:44:23;;;;;;;;;;;;;;;30.21;30.09;100580.13;5016104;28;7185;-80
2022/06/20 11:47:25;;;;;;;;;;;;;;;30.26;30.88;100572.06;5019496;28;7324;-80
2022/06/20 11:50:30;;;;;;;;;;;;;;;30.60;30.17;100569.19;5029648;28;7236;-79
2022/06/20 11:53:26;;;;;;;;;;;;;;;30.30;29.63;100577.22;5017869;28;7015;-79
2022/06/20 11:56:33;;;;;;;;;;;;;;;29.79;30.03;100574.31;5015748;28;7578;-79
2022/06/20 11:59:46;;;;;;;;;;;;;;;30.20;29.83;100567.84;5018875;28;7170;-78
2022/06/20 12:02:59;;;;;;;;;;;;;;;30.81;29.15;100563.25;5016926;28;7092;-79
2022/06/20 12:06:08;;;;;;;;;;;;;;;30.94;28.79;100553.97;5013839;28;8365;-79
2022/06/20 12:08:59;;;;;;;;;;;;;;;31.50;28.72;100549.38;5012435;28;7222;-79
2022/06/20 12:11:30;;;;;;;;;;;;;;;31.88;28.02;100556.81;5006714;28;7191;-79
2022/06/20 12:14:27;;;;;;;;;;;;;;;31.70;27.22;100553.91;5012236;28;7900;-78
2022/06/20 12:17:18;;;;;;;;;;;;;;;31.06;27.51;100552.69;5016455;28;7114;-79
2022/06/20 12:23:18;;;;;;;;;;;;;;;31.40;28.35;100558.56;5015783;28;7311;-79
2022/06/20 12:26:04;;;;;;;;;;;;;;;31.73;26.95;100560.91;4996224;28;7214;-78
2022/06/20 12:28:46;;;;;;;;;;;;;;;31.22;26.96;100554.78;5015349;28;8274;-78
2022/06/20 12:31:23;;;;;;;;;;;;;;;30.94;27.45;100556.63;4989728;28;8382;-79
2022/06/20 12:33:55;;;;;;;;;;;;;;;31.19;27.50;100558.41;5020925;28;6815;-78
2022/06/20 12:36:42;;;;;;;;;;;;;;;31.66;27.04;100557.59;5014895;28;7112;-78
2022/06/20 12:39:37;;;;;;;;;;;;;;;32.16;27.06;100550.44;4989561;28;7031;-78
2022/06/20 12:42:41;;;;;;;;;;;;;;;32.59;26.60;100553.09;5010623;28;8749;-79
2022/06/20 12:45:35;;;;;;;;;;;;;;;32.78;26.15;100547.88;4995589;28;10063;-79
2022/06/20 12:48:25;;;;;;;;;;;;;;;32.64;26.77;100542.28;5017749;28;8139;-79
2022/06/20 12:50:59;;;;;;;;;;;;;;;32.97;26.21;100541.81;5018893;28;7234;-80
2022/06/20 12:53:59;;;;;;;;;;;;;;;33.45;25.93;100552.09;5032291;28;7004;-79
2022/06/20 12:57:19;;;;;;;;;;;;;;;33.67;24.90;100541.38;5020287;28;7187;-79
2022/06/20 13:00:25;;;;;;;;;;;;;;;33.54;24.16;100543.72;4971208;28;7418;-79
2022/06/20 13:03:06;;;;;;;;;;;;;;;33.55;24.34;100540.13;5032215;28;7900;-79
2022/06/20 13:06:25;;;;;;;;;;;;;;;33.59;23.55;100544.34;5025904;28;7707;-80
2022/06/20 13:09:29;;;;;;;;;;;;;;;33.51;23.60;100546.50;5003450;28;7387;-79
2022/06/20 13:12:22;;;;;;;;;;;;;;;33.52;23.63;100548.25;5019459;28;7204;-79
2022/06/20 13:15:22;;;;;;;;;;;;;;;33.19;23.60;100546.16;5018795;28;7065;-79
2022/06/20 13:18:42;;;;;;;;;;;;;;;32.31;23.67;100548.06;5037692;28;7221;-79
2022/06/20 13:21:30;;;;;;;;;;;;;;;31.62;25.11;100548.03;5025004;28;7020;-79
2022/06/20 13:24:14;;;;;;;;;;;;;;;31.58;24.71;100546.41;5012683;28;6887;-79
2022/06/20 13:27:36;;;;;;;;;;;;;;;31.80;25.04;100558.88;5006295;28;6811;-79
2022/06/20 13:30:20;;;;;;;;;;;;;;;32.26;24.80;100559.72;5010534;28;8192;-79
2022/06/20 13:33:24;;;;;;;;;;;;;;;32.82;24.39;100548.63;5018034;28;7160;-79
2022/06/20 13:36:21;;;;;;;;;;;;;;;33.04;23.82;100534.44;5018991;28;7074;-79
2022/06/20 13:39:12;;;;;;;;;;;;;;;32.90;23.95;100541.19;4993269;28;8441;-79
2022/06/20 13:41:53;;;;;;;;;;;;;;;33.04;24.02;100540.63;5013546;28;6972;-78
2022/06/20 13:44:39;;;;;;;;;;;;;;;32.94;23.58;100545.47;5008028;28;7183;-78
2022/06/20 13:47:26;;;;;;;;;;;;;;;32.40;24.13;100537.97;5021401;28;6919;-77
2022/06/20 13:50:39;;;;;;;;;;;;;;;31.79;23.59;100550.03;5013776;28;7140;-78
2022/06/20 13:53:14;;;;;;;;;;;;;;;30.85;24.35;100541.94;5021620;28;7038;-78
2022/06/20 13:56:10;;;;;;;;;;;;;;;30.17;24.70;100550.28;5014447;28;6903;-77
2022/06/20 13:59:17;;;;;;;;;;;;;;;29.93;25.24;100544.84;5000170;28;7820;-78
2022/06/20 14:02:04;;;;;;;;;;;;;;;30.11;26.05;100541.72;5013039;28;6804;-78
2022/06/20 14:04:33;;;;;;;;;;;;;;;30.43;25.96;100545.13;5014950;28;6841;-78
2022/06/20 14:07:05;;;;;;;;;;;;;;;30.83;25.95;100535.84;5012630;28;7023;-78
2022/06/20 14:09:48;;;;;;;;;;;;;;;31.26;25.23;100544.06;5013889;28;6812;-79
2022/06/20 14:12:32;;;;;;;;;;;;;;;31.71;25.11;100549.47;5022079;28;6885;-78
2022/06/20 14:15:06;;;;;;;;;;;;;;;32.12;24.37;100543.50;4998005;28;7928;-78
2022/06/20 14:17:36;;;;;;;;;;;;;;;32.24;24.18;100547.44;4981820;28;8554;-78
2022/06/20 14:20:23;;;;;;;;;;;;;;;32.28;24.44;100543.75;5003967;28;8729;-78
2022/06/20 14:22:52;;;;;;;;;;;;;;;32.19;23.63;100547.63;4999235;28;8505;-79
2022/06/20 14:25:31;;;;;;;;;;;;;;;32.00;24.07;100535.13;5017431;28;7227;-79
2022/06/20 14:27:59;;;;;;;;;;;;;;;31.95;24.42;100539.72;5024579;28;6973;-79
2022/06/20 14:30:38;;;;;;;;;;;;;;;31.97;24.20;100537.91;5015399;28;7305;-78
2022/06/20 14:33:37;;;;;;;;;;;;;;;31.93;24.16;100544.22;5005510;28;10763;-78